Boulder City, NV

3:30 PM PST on November 16, 2019 (GMT -0800)
Boulder City

Weather History for KBVU - September, 2019

Change the Weather History Date:

Sunday, September 8, 2019

  Actual Average (KLAS) Record (KLAS)
Temperature  
Mean Temperature 84 °F -  
Max Temperature 95 °F 97 °F 110 °F (1979)
Min Temperature 73 °F 70 °F 56 °F (1965)
Cooling Degree Days 19    
Growing Degree Days 34 (Base 50)    
Moisture  
Dew Point 28 °F    
Average Humidity 13    
Maximum Humidity 27    
Minimum Humidity 8    
Precipitation  
Precipitation 0.00 in - - ()
Sea Level Pressure  
Sea Level Pressure 29.77 in    
Wind  
Wind Speed 11 mph ()    
Max Wind Speed 25 mph    
Max Gust Speed 34 mph    
Visibility 10.0 miles    
Events      
Averages and records for this station are not official NWS values.
T = Trace of Precipitation, MM = Missing Value Source: Averaged Metar Reports

Daily Weather History Graph

Daily Weather History Graph

Search for Another Location

Airport or City:

Astronomy

Sep. 08, 2019 Rise Set
Actual Time 6:16 AM PDT 6:57 PM PDT
Civil Twilight 5:50 AM PDT 7:22 PM PDT
Nautical Twilight 5:20 AM PDT 7:53 PM PDT
Astronomical Twilight 4:48 AM PDT 8:24 PM PDT
Moon 4:00 PM PDT (9/8) 1:08 AM PDT (9/8)
Length of Visible Light 13h 32m
Length of Day
12h 40m
Waxing Gibbous, 76% of the Moon is Illuminated
Sep 8
Waxing Gibbous
Sep 13
Full
Sep 21
Last Quarter
Sep 28
New
Oct 5
First Quarter

Hourly Weather History & Observations

Time (PDT) Temp. Dew Point Humidity Pressure Visibility Wind Dir Wind Speed Gust Speed Precip Events Conditions
12:15 AM 86.0 °F 41.0 °F 20% 29.75 in 10.0 mi SSW 15.0 mph - N/A   Clear
12:35 AM 86.0 °F 37.4 °F 18% 29.74 in 10.0 mi SSW 12.7 mph - N/A   Clear
12:55 AM 86.0 °F 37.4 °F 18% 29.74 in 10.0 mi SW 15.0 mph 25.3 mph N/A   Partly Cloudy
1:15 AM 86.0 °F 39.2 °F 19% 29.75 in 10.0 mi SW 18.4 mph 28.8 mph N/A   Partly Cloudy
1:35 AM 86.0 °F 39.2 °F 19% 29.75 in 10.0 mi SW 18.4 mph 24.2 mph N/A   Clear
1:55 AM 84.2 °F 41.0 °F 22% 29.74 in 10.0 mi SW 18.4 mph - N/A   Clear
2:15 AM 84.2 °F 39.2 °F 20% 29.73 in 10.0 mi SSW 20.7 mph 27.6 mph N/A   Clear
2:35 AM 84.2 °F 37.4 °F 19% 29.73 in 10.0 mi SW 21.9 mph 33.4 mph N/A   Clear
2:55 AM 84.2 °F 35.6 °F 18% 29.73 in 10.0 mi SSW 20.7 mph 26.5 mph N/A   Clear
3:15 AM 82.4 °F 32.0 °F 16% 29.74 in 10.0 mi SW 23.0 mph - N/A   Clear
3:35 AM 82.4 °F 28.4 °F 14% 29.73 in 10.0 mi SW 25.3 mph 32.2 mph N/A   Clear
3:55 AM 80.6 °F 26.6 °F 14% 29.73 in 10.0 mi SW 17.3 mph 34.5 mph N/A   Clear
4:15 AM 80.6 °F 28.4 °F 15% 29.73 in 10.0 mi SSW 12.7 mph 18.4 mph N/A   Clear
4:35 AM 80.6 °F 26.6 °F 14% 29.74 in 10.0 mi SSE 10.4 mph - N/A   Clear
4:55 AM 78.8 °F 24.8 °F 14% 29.75 in 10.0 mi SSW 13.8 mph - N/A   Clear
5:15 AM 78.8 °F 24.8 °F 14% 29.76 in 10.0 mi SW 10.4 mph 20.7 mph N/A   Clear
5:35 AM 78.8 °F 24.8 °F 14% 29.75 in 10.0 mi SSW 9.2 mph - N/A   Clear
5:55 AM 78.8 °F 23.0 °F 13% 29.76 in 10.0 mi Variable 6.9 mph - N/A   Clear
6:15 AM 78.8 °F 23.0 °F 13% 29.76 in 10.0 mi Variable 4.6 mph 11.5 mph N/A   Clear
6:35 AM 77.0 °F 23.0 °F 13% 29.78 in 10.0 mi NNW 4.6 mph - N/A   Clear
6:55 AM 75.2 °F 24.8 °F 15% 29.78 in 10.0 mi West 4.6 mph - N/A   Clear
7:15 AM 77.0 °F 26.6 °F 16% 29.79 in 10.0 mi SSW 9.2 mph - N/A   Clear
7:35 AM 77.0 °F 28.4 °F 17% 29.79 in 10.0 mi SW 12.7 mph 24.2 mph N/A   Clear
7:55 AM 78.8 °F 28.4 °F 16% 29.79 in 10.0 mi SW 10.4 mph - N/A   Clear
8:15 AM 80.6 °F 28.4 °F 15% 29.79 in 10.0 mi SSW 11.5 mph - N/A   Clear
8:35 AM 80.6 °F 28.4 °F 15% 29.80 in 10.0 mi South 13.8 mph - N/A   Clear
8:55 AM 82.4 °F 30.2 °F 15% 29.80 in 10.0 mi SSW 13.8 mph - N/A   Clear
9:15 AM 84.2 °F 30.2 °F 14% 29.80 in 10.0 mi SW 11.5 mph - N/A   Clear
9:35 AM 84.2 °F 28.4 °F 13% 29.80 in 10.0 mi SSW 11.5 mph - N/A   Clear
9:55 AM 84.2 °F 28.4 °F 13% 29.81 in 10.0 mi SSW 11.5 mph - N/A   Clear
10:15 AM 86.0 °F 26.6 °F 12% 29.81 in 10.0 mi SSW 10.4 mph - N/A   Clear
10:35 AM 86.0 °F 26.6 °F 12% 29.81 in 9.0 mi SSW 6.9 mph 13.8 mph N/A   Clear
10:55 AM 86.0 °F 28.4 °F 12% 29.81 in 10.0 mi Variable 4.6 mph 12.7 mph N/A   Clear
11:15 AM 87.8 °F 26.6 °F 11% 29.81 in 10.0 mi SSW 11.5 mph - N/A   Clear
11:35 AM 87.8 °F 28.4 °F 12% 29.81 in 10.0 mi Variable 3.5 mph - N/A   Clear
11:55 AM 89.6 °F 28.4 °F 11% 29.80 in 10.0 mi WSW 8.1 mph 15.0 mph N/A   Clear
12:15 PM 89.6 °F 28.4 °F 11% 29.80 in 10.0 mi Variable 4.6 mph 13.8 mph N/A   Clear
12:35 PM 91.4 °F 28.4 °F 10% 29.80 in 10.0 mi WSW 5.8 mph 12.7 mph N/A   Clear
12:55 PM 91.4 °F 28.4 °F 10% 29.80 in 10.0 mi Variable 5.8 mph 12.7 mph N/A   Clear
1:15 PM 91.4 °F 28.4 °F 10% 29.80 in 10.0 mi SW 8.1 mph 18.4 mph N/A   Clear
1:35 PM 93.2 °F 28.4 °F 10% 29.79 in 10.0 mi SW 8.1 mph 16.1 mph N/A   Clear
1:55 PM 91.4 °F 28.4 °F 10% 29.78 in 10.0 mi Calm Calm - N/A   Clear
2:15 PM 93.2 °F 28.4 °F 10% 29.78 in 10.0 mi Variable 5.8 mph - N/A   Clear
2:35 PM 93.2 °F 28.4 °F 10% 29.77 in 10.0 mi South 8.1 mph 15.0 mph N/A   Clear
2:55 PM 95.0 °F 26.6 °F 9% 29.77 in 10.0 mi SSW 11.5 mph - N/A   Clear
3:15 PM 95.0 °F 24.8 °F 8% 29.76 in 10.0 mi SSW 16.1 mph 21.9 mph N/A   Clear
3:35 PM 95.0 °F 24.8 °F 8% 29.75 in 8.0 mi South 11.5 mph 18.4 mph N/A   Clear
3:55 PM 95.0 °F 24.8 °F 8% 29.75 in 10.0 mi SSE 8.1 mph 15.0 mph N/A   Clear
4:15 PM 95.0 °F 24.8 °F 8% 29.74 in 10.0 mi SSE 11.5 mph - N/A   Clear
4:35 PM 95.0 °F 24.8 °F 8% 29.74 in 10.0 mi SSE 12.7 mph - N/A   Clear
4:55 PM 95.0 °F 24.8 °F 8% 29.74 in 10.0 mi WSW 11.5 mph 17.3 mph N/A   Clear
5:15 PM 95.0 °F 24.8 °F 8% 29.74 in 10.0 mi WSW 8.1 mph - N/A   Clear
5:35 PM 93.2 °F 26.6 °F 9% 29.73 in 10.0 mi West 6.9 mph - N/A   Clear
5:55 PM 93.2 °F 26.6 °F 9% 29.73 in 10.0 mi SW 8.1 mph 16.1 mph N/A   Clear
6:15 PM 93.2 °F 26.6 °F 9% 29.74 in 10.0 mi WSW 10.4 mph - N/A   Clear
6:35 PM 91.4 °F 21.2 °F 8% 29.74 in 10.0 mi SW 9.2 mph 17.3 mph N/A   Clear
6:55 PM 91.4 °F 21.2 °F 8% 29.74 in 10.0 mi SW 11.5 mph - N/A   Clear
7:15 PM 89.6 °F 21.2 °F 8% 29.74 in 10.0 mi SW 8.1 mph - N/A   Clear
7:35 PM 87.8 °F 21.2 °F 9% 29.75 in 10.0 mi SSW 5.8 mph - N/A   Partly Cloudy
7:55 PM 86.0 °F 21.2 °F 9% 29.76 in 10.0 mi SSW 4.6 mph - N/A   Mostly Cloudy
8:15 PM 84.2 °F 21.2 °F 10% 29.77 in 10.0 mi SSE 4.6 mph - N/A   Mostly Cloudy
8:35 PM 84.2 °F 21.2 °F 10% 29.77 in 10.0 mi SE 5.8 mph - N/A   Overcast
8:55 PM 84.2 °F 23.0 °F 11% 29.78 in 10.0 mi SE 5.8 mph - N/A   Overcast
9:15 PM 84.2 °F 23.0 °F 11% 29.78 in 10.0 mi SSE 5.8 mph - N/A   Overcast
9:35 PM 84.2 °F 23.0 °F 11% 29.79 in 10.0 mi SE 4.6 mph - N/A   Mostly Cloudy
9:55 PM 80.6 °F 30.2 °F 16% 29.79 in 10.0 mi Calm Calm - N/A   Mostly Cloudy
10:35 PM 77.0 °F 33.8 °F 21% 29.79 in 10.0 mi ENE 4.6 mph - N/A   Overcast
10:55 PM 75.2 °F 33.8 °F 22% 29.80 in 10.0 mi ENE 6.9 mph - N/A   Overcast
11:15 PM 75.2 °F 33.8 °F 22% 29.80 in 10.0 mi ENE 4.6 mph - N/A   Mostly Cloudy
11:35 PM 73.4 °F 37.4 °F 27% 29.80 in 10.0 mi NNE 5.8 mph - N/A   Mostly Cloudy
11:55 PM 73.4 °F 37.4 °F 27% 29.80 in 10.0 mi NE 4.6 mph - N/A   Mostly Cloudy